Terminal Aerodrome Forecast
Issued by NWS

Home | Current Version | Previous Version | Graphics & Text | Print | Product List | Glossary On
Versions: 1 2 3 4 5 6 7 8 9 10 11 12 13 14 15 16 17 18 19 20 21 22 23 24 25 26
681
FTUS43 KBIS 291000 AAA
TAFMOT
TAF AMD
KMOT 291000Z 2910/3006 23008KT 6SM BR SCT030 BKN090
      TEMPO 2910/2913 2SM BR BKN005
     FM291400 27007KT P6SM FEW200
     FM300400 20004KT P6SM FEW250=

USA.gov is the U.S. government's official web portal to all federal, state and local government web resources and services.